Time;durP1;ratioP1;P1;durP2;ratioP2;P2;SDS_P1;SDS_P2;PMS_P1;PMS_P2;Temp;Humidity;BMP_temperature;BMP_pressure;BME280_temperature;BME280_humidity;BME280_pressure;Samples;Min_cycle;Max_cycle;Signal;HPM_P1;HPM_P2
2023/03/14 00:00:42;;;;;;;2.50;1.50;;;;;;;;;;4908875;29;20076;-79
2023/03/14 00:03:09;;;;;;;3.05;2.10;;;;;;;;;;4891041;29;20049;-79
2023/03/14 00:05:39;;;;;;;3.00;1.98;;;;;;;;;;4894320;29;20053;-79
2023/03/14 00:08:07;;;;;;;3.40;1.95;;;;;;;;;;4894359;29;20048;-79
2023/03/14 00:10:36;;;;;;;2.13;1.67;;;;;;;;;;4896347;29;20052;-79
2023/03/14 00:13:04;;;;;;;3.72;2.17;;;;;;;;;;4886721;29;20052;-79
2023/03/14 00:15:33;;;;;;;2.30;1.60;;;;;;;;;;4903543;29;20053;-79
2023/03/14 00:18:00;;;;;;;2.83;1.48;;;;;;;;;;4893292;29;20048;-79
2023/03/14 00:20:27;;;;;;;1.58;1.13;;;;;;;;;;4950285;23;20047;-79
2023/03/14 00:22:57;;;;;;;2.33;0.98;;;;;;;;;;4950776;28;20055;-80
2023/03/14 00:25:25;;;;;;;1.70;1.10;;;;;;;;;;4948314;29;20537;-80
2023/03/14 00:27:52;;;;;;;4.53;1.00;;;;;;;;;;4951018;28;20058;-80
2023/03/14 00:30:20;;;;;;;1.13;1.02;;;;;;;;;;4938742;29;20145;-80
2023/03/14 00:32:49;;;;;;;2.63;1.25;;;;;;;;;;4943295;28;20051;-80
2023/03/14 00:35:19;;;;;;;0.95;0.60;;;;;;;;;;4931918;29;20072;-80
2023/03/14 00:37:47;;;;;;;2.30;1.20;;;;;;;;;;4931648;29;20055;-80
2023/03/14 00:40:14;;;;;;;1.35;0.93;;;;;;;;;;4932918;29;20532;-80
2023/03/14 00:42:45;;;;;;;1.33;0.82;;;;;;;;;;4931269;29;20059;-80
2023/03/14 00:45:12;;;;;;;1.85;0.85;;;;;;;;;;4930912;29;20052;-80
2023/03/14 00:47:45;;;;;;;0.80;0.70;;;;;;;;;;4930086;29;20419;-79
2023/03/14 00:50:12;;;;;;;1.10;0.60;;;;;;;;;;4940078;29;20410;-79
2023/03/14 00:52:42;;;;;;;2.13;0.77;;;;;;;;;;4930015;29;20395;-79
2023/03/14 00:55:14;;;;;;;1.00;0.65;;;;;;;;;;4931714;29;20379;-80
2023/03/14 00:57:41;;;;;;;2.92;0.90;;;;;;;;;;4945485;28;20070;-80
2023/03/14 01:00:15;;;;;;;2.28;1.00;;;;;;;;;;4932233;29;20047;-80
2023/03/14 01:02:45;;;;;;;2.45;0.82;;;;;;;;;;4928484;29;20048;-80
2023/03/14 01:05:12;;;;;;;2.38;0.85;;;;;;;;;;4930895;29;20062;-80
2023/03/14 01:07:39;;;;;;;0.90;0.68;;;;;;;;;;4942129;28;20047;-80
2023/03/14 01:10:08;;;;;;;1.55;1.10;;;;;;;;;;4916144;29;20051;-80
2023/03/14 01:12:35;;;;;;;1.65;0.65;;;;;;;;;;4949293;28;20044;-80
2023/03/14 01:15:06;;;;;;;1.48;0.77;;;;;;;;;;4915319;29;20066;-80
2023/03/14 01:17:39;;;;;;;1.05;0.65;;;;;;;;;;4928054;29;20078;-80
2023/03/14 01:20:11;;;;;;;4.85;0.75;;;;;;;;;;4942186;28;20054;-80
2023/03/14 01:22:41;;;;;;;1.95;0.75;;;;;;;;;;4930123;29;20054;-80
2023/03/14 01:25:11;;;;;;;0.98;0.82;;;;;;;;;;4931933;29;20426;-80
2023/03/14 01:27:38;;;;;;;2.00;0.93;;;;;;;;;;4914058;29;20056;-80
2023/03/14 01:30:14;;;;;;;1.45;0.85;;;;;;;;;;4930900;29;20059;-80
2023/03/14 01:32:43;;;;;;;1.25;0.60;;;;;;;;;;4942127;28;20427;-80
2023/03/14 01:35:10;;;;;;;0.80;0.70;;;;;;;;;;4932128;29;20074;-80
2023/03/14 01:37:40;;;;;;;3.70;0.95;;;;;;;;;;4928787;29;20048;-80
2023/03/14 01:40:21;;;;;;;0.77;0.68;;;;;;;;;;4930831;29;20395;-80
2023/03/14 01:42:55;;;;;;;3.90;1.67;;;;;;;;;;4945714;28;20060;-80
2023/03/14 01:46:00;;;;;;;0.90;0.77;;;;;;;;;;4931050;29;20048;-80
2023/03/14 01:48:34;;;;;;;1.45;1.27;;;;;;;;;;4924853;29;20044;-80
2023/03/14 01:51:02;;;;;;;1.98;1.60;;;;;;;;;;4923176;29;20506;-80
2023/03/14 01:53:29;;;;;;;0.80;0.60;;;;;;;;;;4946696;28;20051;-80
2023/03/14 01:55:58;;;;;;;2.40;0.80;;;;;;;;;;4947885;28;20497;-80
2023/03/14 01:58:34;;;;;;;0.77;0.68;;;;;;;;;;4912179;29;20063;-80
2023/03/14 02:01:03;;;;;;;1.27;0.73;;;;;;;;;;4930367;29;20055;-80
2023/03/14 02:03:36;;;;;;;0.82;0.47;;;;;;;;;;4913861;29;20058;-80
2023/03/14 02:06:08;;;;;;;1.30;0.80;;;;;;;;;;4929489;29;20044;-80
2023/03/14 02:08:38;;;;;;;0.88;0.55;;;;;;;;;;4925181;29;20418;-80
2023/03/14 02:11:09;;;;;;;2.33;1.00;;;;;;;;;;4930754;29;20062;-78
2023/03/14 02:13:58;;;;;;;1.70;1.15;;;;;;;;;;4928976;29;20051;-78
2023/03/14 02:16:52;;;;;;;0.95;0.52;;;;;;;;;;4925875;29;20043;-78
2023/03/14 02:19:59;;;;;;;2.45;1.00;;;;;;;;;;4928352;29;20517;-78
2023/03/14 02:22:38;;;;;;;1.23;0.60;;;;;;;;;;4927658;29;20293;-77
2023/03/14 02:25:10;;;;;;;0.60;0.50;;;;;;;;;;4931539;29;20052;-77
2023/03/14 02:27:41;;;;;;;1.40;0.90;;;;;;;;;;4930561;29;20050;-77
2023/03/14 02:30:14;;;;;;;2.05;0.70;;;;;;;;;;4919605;29;20052;-77
2023/03/14 02:32:45;;;;;;;1.33;0.95;;;;;;;;;;4930684;29;20063;-77
2023/03/14 02:35:20;;;;;;;1.25;0.60;;;;;;;;;;4931746;29;20052;-78
2023/03/14 02:37:54;;;;;;;1.23;0.95;;;;;;;;;;4929867;29;20054;-78
2023/03/14 02:40:22;;;;;;;1.92;1.17;;;;;;;;;;4919595;29;20074;-78
2023/03/14 02:42:53;;;;;;;0.82;0.60;;;;;;;;;;4919207;29;20395;-77
2023/03/14 02:45:35;;;;;;;2.33;0.70;;;;;;;;;;4931866;29;20071;-78
2023/03/14 02:48:07;;;;;;;2.42;1.00;;;;;;;;;;4915882;29;20062;-78
2023/03/14 02:50:38;;;;;;;1.50;0.70;;;;;;;;;;4932853;29;20048;-77
2023/03/14 02:53:08;;;;;;;2.85;1.30;;;;;;;;;;4912399;29;20051;-78
2023/03/14 02:55:40;;;;;;;1.30;0.70;;;;;;;;;;4934718;29;20043;-78
2023/03/14 02:58:13;;;;;;;3.25;1.15;;;;;;;;;;4968684;28;20043;-77
2023/03/14 03:00:41;;;;;;;1.60;1.25;;;;;;;;;;4936618;29;20047;-77
2023/03/14 03:03:11;;;;;;;3.47;2.33;;;;;;;;;;4970731;28;20043;-78
2023/03/14 03:05:38;;;;;;;2.33;1.10;;;;;;;;;;4938645;29;20055;-78
2023/03/14 03:08:07;;;;;;;1.13;0.85;;;;;;;;;;4944750;28;20051;-78
2023/03/14 03:10:39;;;;;;;1.98;0.73;;;;;;;;;;4921286;29;20044;-78
2023/03/14 03:13:07;;;;;;;2.35;0.90;;;;;;;;;;4939427;29;20066;-77
2023/03/14 03:15:36;;;;;;;1.77;0.85;;;;;;;;;;4935801;29;20051;-78
2023/03/14 03:18:03;;;;;;;0.80;0.75;;;;;;;;;;4928561;29;20052;-77
2023/03/14 03:20:33;;;;;;;2.90;1.20;;;;;;;;;;4933948;29;20051;-78
2023/03/14 03:23:03;;;;;;;1.35;0.68;;;;;;;;;;4928882;29;20638;-77
2023/03/14 03:25:30;;;;;;;1.42;0.60;;;;;;;;;;4931698;29;20051;-78
2023/03/14 03:27:58;;;;;;;0.70;0.70;;;;;;;;;;4933057;29;20060;-77
2023/03/14 03:30:28;;;;;;;2.33;0.70;;;;;;;;;;4931127;29;20055;-78
2023/03/14 03:32:57;;;;;;;1.45;0.70;;;;;;;;;;4930789;29;20058;-77
2023/03/14 03:35:24;;;;;;;1.13;0.60;;;;;;;;;;4933710;29;20063;-78
2023/03/14 03:37:53;;;;;;;3.67;1.08;;;;;;;;;;4932357;29;20070;-77
2023/03/14 03:40:24;;;;;;;2.28;0.77;;;;;;;;;;4933891;29;20074;-78
2023/03/14 03:42:58;;;;;;;0.77;0.70;;;;;;;;;;4930917;29;20048;-78
2023/03/14 03:45:26;;;;;;;0.60;0.60;;;;;;;;;;4932176;29;20051;-78
2023/03/14 03:47:59;;;;;;;0.88;0.73;;;;;;;;;;4931621;29;20410;-77
2023/03/14 03:50:27;;;;;;;0.90;0.80;;;;;;;;;;4932650;29;20043;-78
2023/03/14 03:52:54;;;;;;;1.08;0.70;;;;;;;;;;4946784;28;20040;-78
2023/03/14 03:55:21;;;;;;;1.48;1.33;;;;;;;;;;4932935;29;20055;-78
2023/03/14 03:57:50;;;;;;;1.42;0.70;;;;;;;;;;4932094;29;20048;-78
2023/03/14 04:00:20;;;;;;;1.95;1.33;;;;;;;;;;4947680;28;20043;-77
2023/03/14 04:02:48;;;;;;;1.55;0.77;;;;;;;;;;4932809;29;20058;-78
2023/03/14 04:05:27;;;;;;;1.63;0.70;;;;;;;;;;4925747;29;20422;-78
2023/03/14 04:08:08;;;;;;;1.58;1.17;;;;;;;;;;4916891;29;20491;-78
2023/03/14 04:10:37;;;;;;;1.58;0.80;;;;;;;;;;4932342;29;20056;-78
2023/03/14 04:13:10;;;;;;;2.90;1.40;;;;;;;;;;4929991;29;20051;-78
2023/03/14 04:15:40;;;;;;;1.55;0.77;;;;;;;;;;4916440;29;20529;-78
2023/03/14 04:18:16;;;;;;;1.83;1.30;;;;;;;;;;4942747;29;20054;-78
2023/03/14 04:20:46;;;;;;;1.15;0.82;;;;;;;;;;4931974;29;20048;-78
2023/03/14 04:23:15;;;;;;;1.08;0.82;;;;;;;;;;4944360;29;20507;-78
2023/03/14 04:25:42;;;;;;;2.58;0.90;;;;;;;;;;4929271;29;20422;-78
2023/03/14 04:28:12;;;;;;;2.75;1.00;;;;;;;;;;4932070;29;20406;-78
2023/03/14 04:30:42;;;;;;;1.23;0.63;;;;;;;;;;4928415;29;20058;-78
2023/03/14 04:33:17;;;;;;;6.43;1.85;;;;;;;;;;4930639;29;20047;-79
2023/03/14 04:35:54;;;;;;;2.17;0.82;;;;;;;;;;4930086;29;20060;-78
2023/03/14 04:38:21;;;;;;;4.78;2.58;;;;;;;;;;4943268;28;20043;-79
2023/03/14 04:40:49;;;;;;;1.17;0.82;;;;;;;;;;4931870;29;20052;-78
2023/03/14 04:43:18;;;;;;;4.70;1.33;;;;;;;;;;4931098;29;20047;-78
2023/03/14 04:45:54;;;;;;;4.20;1.27;;;;;;;;;;4932769;29;20056;-78
2023/03/14 04:48:21;;;;;;;2.13;0.77;;;;;;;;;;4944095;28;20060;-78
2023/03/14 04:50:53;;;;;;;1.15;0.77;;;;;;;;;;4930707;29;20054;-78
2023/03/14 04:53:26;;;;;;;1.60;0.95;;;;;;;;;;4909347;29;20047;-78
2023/03/14 04:55:59;;;;;;;3.67;1.15;;;;;;;;;;4914889;29;20055;-78
2023/03/14 04:58:38;;;;;;;2.03;1.10;;;;;;;;;;4929687;29;20056;-78
2023/03/14 05:01:07;;;;;;;1.20;0.47;;;;;;;;;;4915022;29;20055;-78
2023/03/14 05:03:47;;;;;;;4.13;1.20;;;;;;;;;;4929008;29;20121;-78
2023/03/14 05:06:23;;;;;;;1.52;0.80;;;;;;;;;;4912731;29;20140;-78
2023/03/14 05:09:12;;;;;;;2.20;0.80;;;;;;;;;;4924043;29;20043;-78
2023/03/14 05:11:48;;;;;;;3.63;1.00;;;;;;;;;;4930756;29;20047;-78
2023/03/14 05:14:33;;;;;;;3.67;0.82;;;;;;;;;;4928645;29;20058;-78
2023/03/14 05:17:28;;;;;;;1.55;1.15;;;;;;;;;;4934983;29;20060;-78
2023/03/14 05:20:12;;;;;;;5.18;1.92;;;;;;;;;;4929280;29;20401;-79
2023/03/14 05:23:00;;;;;;;3.83;1.20;;;;;;;;;;4929146;29;21228;-78
2023/03/14 05:25:45;;;;;;;1.38;0.95;;;;;;;;;;4928743;29;20498;-78
2023/03/14 05:28:35;;;;;;;2.47;1.30;;;;;;;;;;4923918;29;20055;-78
2023/03/14 05:31:11;;;;;;;2.63;0.82;;;;;;;;;;4930504;29;20581;-78
2023/03/14 05:34:00;;;;;;;1.58;1.30;;;;;;;;;;4931148;29;20048;-78
2023/03/14 05:36:45;;;;;;;3.90;1.00;;;;;;;;;;4930099;29;20048;-79
2023/03/14 05:39:43;;;;;;;1.75;0.80;;;;;;;;;;4932197;29;20063;-78
2023/03/14 05:43:07;;;;;;;2.80;1.02;;;;;;;;;;4918122;29;20063;-79
2023/03/14 05:45:54;;;;;;;2.85;0.95;;;;;;;;;;4949117;29;20051;-79
2023/03/14 05:48:56;;;;;;;2.22;1.15;;;;;;;;;;4911078;29;20056;-79
2023/03/14 05:51:43;;;;;;;2.67;0.73;;;;;;;;;;4926169;29;20051;-79
2023/03/14 05:54:30;;;;;;;1.58;0.70;;;;;;;;;;4918662;29;20379;-79
2023/03/14 05:57:10;;;;;;;0.65;0.60;;;;;;;;;;4932049;29;20074;-79
2023/03/14 05:59:57;;;;;;;1.08;0.70;;;;;;;;;;4922224;29;20079;-79
2023/03/14 06:02:41;;;;;;;1.05;0.63;;;;;;;;;;4930369;29;20067;-79
2023/03/14 06:05:18;;;;;;;1.73;0.80;;;;;;;;;;4931574;29;20056;-79
2023/03/14 06:07:46;;;;;;;2.22;0.95;;;;;;;;;;4928166;29;20060;-79
2023/03/14 06:10:14;;;;;;;0.85;0.60;;;;;;;;;;4911123;29;20051;-79
2023/03/14 06:12:46;;;;;;;3.13;0.98;;;;;;;;;;4919000;29;20055;-79
2023/03/14 06:15:13;;;;;;;1.55;1.00;;;;;;;;;;4914564;29;20071;-78
2023/03/14 06:17:43;;;;;;;3.78;1.08;;;;;;;;;;4938216;28;20064;-79
2023/03/14 06:20:16;;;;;;;5.05;1.80;;;;;;;;;;4942512;23;20063;-78
2023/03/14 06:22:43;;;;;;;1.55;0.60;;;;;;;;;;4903293;29;20052;-78
2023/03/14 06:25:14;;;;;;;3.33;0.98;;;;;;;;;;4912129;29;20054;-78
2023/03/14 06:27:43;;;;;;;4.03;0.77;;;;;;;;;;4938929;29;20051;-78
2023/03/14 06:30:13;;;;;;;3.17;1.10;;;;;;;;;;4905947;29;20052;-78
2023/03/14 06:32:40;;;;;;;1.42;0.93;;;;;;;;;;4922203;29;20074;-78
2023/03/14 06:35:11;;;;;;;1.17;0.60;;;;;;;;;;4936994;29;20044;-78
2023/03/14 06:37:41;;;;;;;1.67;0.82;;;;;;;;;;4914103;29;20060;-78
2023/03/14 06:40:12;;;;;;;1.20;0.82;;;;;;;;;;4912514;29;20064;-78
2023/03/14 06:42:54;;;;;;;1.50;0.68;;;;;;;;;;4929694;29;20047;-78
2023/03/14 06:45:26;;;;;;;4.32;0.98;;;;;;;;;;4888582;29;20059;-78
2023/03/14 06:47:54;;;;;;;2.45;0.77;;;;;;;;;;4905442;29;20067;-78
2023/03/14 06:50:25;;;;;;;2.95;0.85;;;;;;;;;;4926751;29;20528;-78
2023/03/14 06:52:53;;;;;;;2.15;0.70;;;;;;;;;;4914370;29;20052;-79
2023/03/14 06:55:25;;;;;;;2.17;0.90;;;;;;;;;;4930429;29;20036;-79
2023/03/14 06:57:54;;;;;;;1.02;0.70;;;;;;;;;;4909040;29;20410;-79
2023/03/14 07:00:22;;;;;;;1.98;0.65;;;;;;;;;;4912735;29;20055;-79
2023/03/14 07:02:56;;;;;;;0.38;0.32;;;;;;;;;;4911452;29;20438;-79
2023/03/14 07:05:34;;;;;;;1.13;0.60;;;;;;;;;;4915099;29;20052;-79
2023/03/14 07:08:03;;;;;;;1.00;0.93;;;;;;;;;;4910871;29;20056;-79
2023/03/14 07:10:31;;;;;;;2.05;0.80;;;;;;;;;;4913272;29;20048;-79
2023/03/14 07:12:58;;;;;;;1.48;0.52;;;;;;;;;;4895922;29;20521;-79
2023/03/14 07:15:28;;;;;;;3.50;0.85;;;;;;;;;;4916028;29;20407;-79
2023/03/14 07:18:00;;;;;;;1.48;0.77;;;;;;;;;;4912782;29;20103;-79
2023/03/14 07:20:32;;;;;;;0.68;0.52;;;;;;;;;;4915134;29;20263;-79
2023/03/14 07:23:03;;;;;;;1.88;1.25;;;;;;;;;;4912674;29;20055;-79
2023/03/14 07:25:53;;;;;;;0.98;0.60;;;;;;;;;;4915305;29;20662;-79
2023/03/14 07:28:22;;;;;;;1.17;0.77;;;;;;;;;;4922562;29;20419;-79
2023/03/14 07:30:55;;;;;;;1.65;0.82;;;;;;;;;;4922925;29;20052;-79
2023/03/14 07:33:29;;;;;;;;;;;;;;;;;;4906370;29;20064;-79
2023/03/14 07:35:59;;;;;;;0.98;0.60;;;;;;;;;;4914590;29;19923;-79
2023/03/14 07:38:29;;;;;;;1.60;0.82;;;;;;;;;;4912528;29;20056;-79
2023/03/14 07:41:17;;;;;;;1.98;1.33;;;;;;;;;;4920146;29;20052;-78
2023/03/14 07:44:00;;;;;;;;;;;;;;;;;;4929926;29;20063;-79
2023/03/14 07:46:27;;;;;;;1.73;0.60;;;;;;;;;;4908977;29;19923;-79
2023/03/14 07:48:56;;;;;;;2.25;0.93;;;;;;;;;;4912618;29;20063;-80
2023/03/14 07:51:23;;;;;;;1.10;0.80;;;;;;;;;;4909321;29;20063;-80
2023/03/14 07:53:50;;;;;;;1.52;0.80;;;;;;;;;;4909853;29;20079;-79
2023/03/14 07:56:20;;;;;;;2.72;1.20;;;;;;;;;;4920041;29;20525;-79
2023/03/14 07:58:50;;;;;;;1.33;0.82;;;;;;;;;;4926698;29;20048;-79
2023/03/14 08:01:17;;;;;;;0.65;0.65;;;;;;;;;;4907471;29;20426;-79
2023/03/14 08:03:44;;;;;;;3.33;0.75;;;;;;;;;;4916516;29;20056;-79
2023/03/14 08:06:13;;;;;;;1.55;0.70;;;;;;;;;;4897664;29;20052;-79
2023/03/14 08:08:40;;;;;;;2.67;0.77;;;;;;;;;;4914061;29;20451;-80
2023/03/14 08:11:10;;;;;;;1.17;0.60;;;;;;;;;;4906024;29;20055;-80
2023/03/14 08:13:39;;;;;;;3.95;1.00;;;;;;;;;;4906351;29;20055;-79
2023/03/14 08:16:07;;;;;;;1.27;0.60;;;;;;;;;;4906878;29;20048;-79
2023/03/14 08:18:34;;;;;;;3.08;0.68;;;;;;;;;;4915526;29;20047;-80
2023/03/14 08:21:06;;;;;;;0.70;0.57;;;;;;;;;;4911929;29;20059;-79
2023/03/14 08:23:35;;;;;;;1.85;0.95;;;;;;;;;;4915899;29;20044;-79
2023/03/14 08:26:02;;;;;;;0.90;0.50;;;;;;;;;;4915156;29;20048;-80
2023/03/14 08:28:33;;;;;;;3.58;0.82;;;;;;;;;;4904225;29;20079;-79
2023/03/14 08:31:03;;;;;;;0.60;0.50;;;;;;;;;;4899348;29;20059;-79
2023/03/14 08:33:32;;;;;;;2.67;0.73;;;;;;;;;;4898497;29;20063;-79
2023/03/14 08:36:03;;;;;;;0.57;0.57;;;;;;;;;;4899155;29;20063;-79
2023/03/14 08:38:30;;;;;;;1.20;0.75;;;;;;;;;;4910863;29;20051;-78
2023/03/14 08:40:59;;;;;;;1.17;0.40;;;;;;;;;;4921403;29;20518;-78
2023/03/14 08:43:26;;;;;;;0.45;0.30;;;;;;;;;;4908348;29;20036;-78
2023/03/14 08:45:53;;;;;;;1.30;0.50;;;;;;;;;;4910096;29;20048;-78
2023/03/14 08:48:21;;;;;;;1.23;0.52;;;;;;;;;;4927985;29;20044;-78
2023/03/14 08:50:48;;;;;;;1.80;0.55;;;;;;;;;;4912501;29;20052;-78
2023/03/14 08:53:18;;;;;;;0.38;0.30;;;;;;;;;;4910349;29;20048;-78
2023/03/14 08:55:48;;;;;;;2.45;0.63;;;;;;;;;;4917859;29;20051;-78
2023/03/14 08:58:18;;;;;;;0.40;0.38;;;;;;;;;;4925664;29;20052;-78
2023/03/14 09:00:48;;;;;;;1.15;1.08;;;;;;;;;;4911558;29;20048;-78
2023/03/14 09:03:15;;;;;;;1.48;0.43;;;;;;;;;;4891065;29;20044;-78
2023/03/14 09:05:42;;;;;;;1.38;0.40;;;;;;;;;;4913186;29;20036;-78
2023/03/14 09:08:14;;;;;;;0.60;0.50;;;;;;;;;;4911641;29;20052;-79
2023/03/14 09:10:44;;;;;;;1.15;0.50;;;;;;;;;;4896602;29;20059;-78
2023/03/14 09:13:20;;;;;;;0.88;0.40;;;;;;;;;;4923520;29;20067;-78
2023/03/14 09:15:51;;;;;;;2.30;0.47;;;;;;;;;;4911751;29;20051;-78
2023/03/14 09:18:19;;;;;;;1.15;0.88;;;;;;;;;;4910398;29;20067;-78
2023/03/14 09:20:46;;;;;;;1.38;1.27;;;;;;;;;;4910944;29;20047;-77
2023/03/14 09:23:15;;;;;;;4.25;2.90;;;;;;;;;;4917292;29;20052;-77
2023/03/14 09:25:45;;;;;;;4.43;0.80;;;;;;;;;;4915664;29;20048;-77
2023/03/14 09:28:12;;;;;;;4.07;0.73;;;;;;;;;;4915956;29;20048;-79
2023/03/14 09:30:41;;;;;;;0.80;0.47;;;;;;;;;;4914508;29;20498;-78
2023/03/14 09:33:10;;;;;;;1.15;0.40;;;;;;;;;;4909707;29;20054;-78
2023/03/14 09:35:38;;;;;;;1.58;0.40;;;;;;;;;;4905389;29;20169;-77
2023/03/14 09:38:06;;;;;;;1.30;0.63;;;;;;;;;;4911082;29;20044;-78
2023/03/14 09:40:37;;;;;;;2.90;1.08;;;;;;;;;;4921412;29;20056;-78
2023/03/14 09:43:04;;;;;;;0.45;0.30;;;;;;;;;;4923499;29;20059;-78
2023/03/14 09:45:34;;;;;;;0.55;0.47;;;;;;;;;;4924256;29;20056;-78
2023/03/14 09:48:04;;;;;;;0.40;0.38;;;;;;;;;;4927286;29;20422;-79
2023/03/14 09:50:38;;;;;;;3.03;1.05;;;;;;;;;;4918230;29;20071;-78
2023/03/14 09:53:11;;;;;;;1.98;1.05;;;;;;;;;;4909678;29;20055;-78
2023/03/14 09:55:39;;;;;;;1.90;0.90;;;;;;;;;;4909968;29;20064;-78
2023/03/14 09:58:12;;;;;;;2.20;0.50;;;;;;;;;;4911214;29;20564;-78
2023/03/14 10:00:40;;;;;;;2.22;1.27;;;;;;;;;;4910273;29;20067;-78
2023/03/14 10:03:22;;;;;;;1.23;0.52;;;;;;;;;;4910122;29;20040;-78
2023/03/14 10:05:49;;;;;;;4.38;1.77;;;;;;;;;;4921459;29;20388;-78
2023/03/14 10:08:16;;;;;;;0.85;0.50;;;;;;;;;;4910508;29;20052;-78
2023/03/14 10:10:43;;;;;;;0.65;0.35;;;;;;;;;;4927597;29;20402;-78
2023/03/14 10:13:16;;;;;;;1.30;0.70;;;;;;;;;;4910342;29;20059;-79
2023/03/14 10:15:48;;;;;;;1.60;0.55;;;;;;;;;;4905485;29;20418;-78
2023/03/14 10:18:19;;;;;;;2.53;0.98;;;;;;;;;;4904092;29;20056;-79
2023/03/14 10:20:50;;;;;;;0.80;0.60;;;;;;;;;;4907843;29;20067;-79
2023/03/14 10:23:27;;;;;;;0.63;0.40;;;;;;;;;;4884015;29;20594;-78
2023/03/14 10:26:05;;;;;;;0.80;0.70;;;;;;;;;;4899623;29;20718;-79
2023/03/14 10:28:34;;;;;;;1.00;0.60;;;;;;;;;;4902091;29;20059;-79
2023/03/14 10:31:01;;;;;;;2.58;0.80;;;;;;;;;;4914637;29;20063;-79
2023/03/14 10:33:34;;;;;;;3.53;1.63;;;;;;;;;;4884242;29;20174;-78
2023/03/14 10:36:08;;;;;;;0.43;0.40;;;;;;;;;;4900505;29;20398;-79
2023/03/14 10:38:38;;;;;;;1.10;0.73;;;;;;;;;;4924743;29;20048;-79
2023/03/14 10:41:18;;;;;;;1.95;1.20;;;;;;;;;;4898269;29;20048;-79
2023/03/14 10:43:47;;;;;;;5.07;1.23;;;;;;;;;;4910763;29;20055;-79
2023/03/14 10:46:28;;;;;;;2.53;1.60;;;;;;;;;;4914141;29;20060;-79
2023/03/14 10:49:28;;;;;;;4.43;0.57;;;;;;;;;;4913150;29;20410;-79
2023/03/14 10:52:02;;;;;;;0.88;0.75;;;;;;;;;;4911482;29;20438;-79
2023/03/14 10:54:31;;;;;;;2.22;0.88;;;;;;;;;;4910865;29;20506;-79
2023/03/14 10:57:05;;;;;;;2.28;1.60;;;;;;;;;;4898468;29;20414;-79
2023/03/14 10:59:36;;;;;;;1.55;0.68;;;;;;;;;;4915028;29;20533;-79
2023/03/14 11:02:11;;;;;;;1.45;0.85;;;;;;;;;;4899417;29;20044;-79
2023/03/14 11:04:55;;;;;;;0.60;0.50;;;;;;;;;;4903357;29;20048;-79
2023/03/14 11:07:26;;;;;;;1.42;0.57;;;;;;;;;;4900761;29;20549;-79
2023/03/14 11:09:57;;;;;;;3.22;0.40;;;;;;;;;;4902807;29;20066;-79
2023/03/14 11:12:37;;;;;;;2.05;0.57;;;;;;;;;;4884235;29;20048;-79
2023/03/14 11:15:18;;;;;;;0.98;0.70;;;;;;;;;;4918880;29;20059;-79
2023/03/14 11:17:55;;;;;;;1.95;0.50;;;;;;;;;;4900176;29;20494;-79
2023/03/14 11:20:34;;;;;;;8.00;0.77;;;;;;;;;;4901186;29;20086;-79
2023/03/14 11:23:05;;;;;;;1.55;0.50;;;;;;;;;;4886457;29;20067;-78
2023/03/14 11:25:34;;;;;;;0.70;0.43;;;;;;;;;;4901208;29;20055;-78
2023/03/14 11:28:09;;;;;;;0.75;0.65;;;;;;;;;;4900570;29;20430;-78
2023/03/14 11:30:44;;;;;;;0.65;0.50;;;;;;;;;;4901841;29;20270;-78
2023/03/14 11:33:15;;;;;;;0.75;0.65;;;;;;;;;;4900323;29;20487;-78
2023/03/14 11:35:48;;;;;;;0.70;0.50;;;;;;;;;;4900969;29;20052;-78
2023/03/14 11:38:26;;;;;;;0.75;0.60;;;;;;;;;;4915070;29;20052;-78
2023/03/14 11:40:55;;;;;;;0.40;0.40;;;;;;;;;;4901739;29;20357;-78
2023/03/14 11:43:28;;;;;;;1.05;0.95;;;;;;;;;;4900495;29;20059;-78
2023/03/14 11:45:59;;;;;;;0.82;0.60;;;;;;;;;;4916046;29;20059;-78
2023/03/14 11:48:32;;;;;;;0.77;0.70;;;;;;;;;;4913398;29;20052;-78
2023/03/14 11:51:03;;;;;;;0.80;0.80;;;;;;;;;;4903154;29;20048;-78
2023/03/14 11:53:43;;;;;;;0.98;0.90;;;;;;;;;;4902205;29;20048;-79
2023/03/14 11:56:14;;;;;;;0.50;0.50;;;;;;;;;;4902303;29;20052;-78
2023/03/14 11:58:48;;;;;;;0.93;0.60;;;;;;;;;;4899608;29;20862;-79
2023/03/14 12:01:21;;;;;;;1.85;1.10;;;;;;;;;;4899803;29;20044;-79
2023/03/14 12:03:56;;;;;;;2.65;0.95;;;;;;;;;;4900204;29;20059;-79
2023/03/14 12:06:26;;;;;;;1.10;0.80;;;;;;;;;;4916181;29;20052;-79
2023/03/14 12:08:55;;;;;;;0.60;0.60;;;;;;;;;;4901273;29;20114;-78
2023/03/14 12:11:32;;;;;;;1.38;0.60;;;;;;;;;;4901478;29;20072;-78
2023/03/14 12:14:02;;;;;;;1.40;0.70;;;;;;;;;;4915049;29;21059;-78
2023/03/14 12:16:37;;;;;;;1.08;0.50;;;;;;;;;;4909278;29;20054;-78
2023/03/14 12:22:31;;;;;;;1.30;0.68;;;;;;;;;;4899518;29;20056;-79
2023/03/14 12:25:16;;;;;;;0.93;0.75;;;;;;;;;;4899963;29;20507;-79
2023/03/14 12:28:03;;;;;;;5.88;0.77;;;;;;;;;;4901704;29;20056;-79
2023/03/14 12:30:33;;;;;;;1.90;1.35;;;;;;;;;;4910822;29;20052;-79
2023/03/14 12:33:33;;;;;;;1.80;0.60;;;;;;;;;;4887078;29;20056;-79
2023/03/14 12:36:04;;;;;;;0.40;0.40;;;;;;;;;;4887255;29;20071;-79
2023/03/14 12:38:57;;;;;;;1.35;0.68;;;;;;;;;;4896703;29;20538;-79
2023/03/14 12:41:27;;;;;;;0.50;0.50;;;;;;;;;;4885282;29;20079;-79
2023/03/14 12:43:57;;;;;;;0.45;0.45;;;;;;;;;;4900797;29;20045;-79
2023/03/14 12:46:26;;;;;;;0.82;0.60;;;;;;;;;;4886244;29;20052;-79
2023/03/14 12:49:05;;;;;;;0.85;0.85;;;;;;;;;;4887498;29;20048;-79
2023/03/14 12:51:36;;;;;;;1.48;0.90;;;;;;;;;;4885641;29;20703;-79
2023/03/14 12:54:30;;;;;;;1.73;0.90;;;;;;;;;;4895806;29;20048;-79
2023/03/14 12:57:09;;;;;;;0.98;0.70;;;;;;;;;;4898328;29;20052;-79
2023/03/14 12:59:43;;;;;;;1.83;0.90;;;;;;;;;;4886604;29;20059;-79
2023/03/14 13:02:23;;;;;;;1.10;1.00;;;;;;;;;;4893455;29;20071;-79
2023/03/14 13:04:52;;;;;;;2.28;0.90;;;;;;;;;;4883597;29;22050;-79
2023/03/14 13:07:40;;;;;;;2.72;0.85;;;;;;;;;;4867796;29;20056;-79
2023/03/14 13:10:20;;;;;;;3.10;0.90;;;;;;;;;;4901499;29;20151;-79
2023/03/14 13:12:53;;;;;;;1.10;1.00;;;;;;;;;;4898462;29;20720;-79
2023/03/14 13:15:25;;;;;;;1.08;0.98;;;;;;;;;;4887454;29;20055;-79
2023/03/14 13:18:00;;;;;;;1.33;1.23;;;;;;;;;;4884735;29;20056;-79
2023/03/14 13:20:33;;;;;;;1.40;1.20;;;;;;;;;;4899184;29;20224;-79
2023/03/14 13:23:00;;;;;;;1.45;1.20;;;;;;;;;;4898546;29;20052;-79
2023/03/14 13:25:33;;;;;;;1.40;1.10;;;;;;;;;;4887193;29;20044;-79
2023/03/14 13:28:03;;;;;;;1.40;0.90;;;;;;;;;;4884440;29;20048;-79
2023/03/14 13:30:41;;;;;;;2.28;1.30;;;;;;;;;;4886671;29;20063;-79
2023/03/14 13:33:16;;;;;;;1.48;0.80;;;;;;;;;;4885426;29;20055;-79
2023/03/14 13:35:47;;;;;;;1.58;0.82;;;;;;;;;;4881349;29;20059;-79
2023/03/14 13:38:20;;;;;;;3.22;0.93;;;;;;;;;;4884766;29;20053;-79
2023/03/14 13:40:49;;;;;;;2.50;1.33;;;;;;;;;;4886275;29;20056;-79
2023/03/14 13:43:19;;;;;;;3.22;1.05;;;;;;;;;;4885117;29;20076;-79
2023/03/14 13:45:51;;;;;;;1.05;0.90;;;;;;;;;;4886217;29;20044;-79
2023/03/14 13:48:20;;;;;;;1.73;1.25;;;;;;;;;;4885408;29;20049;-79
2023/03/14 13:50:54;;;;;;;1.25;1.15;;;;;;;;;;4886022;29;20075;-79
2023/03/14 13:53:24;;;;;;;1.52;1.27;;;;;;;;;;4885311;29;20052;-79
2023/03/14 13:55:55;;;;;;;1.23;1.00;;;;;;;;;;4885175;29;20068;-79
2023/03/14 13:58:30;;;;;;;4.53;1.02;;;;;;;;;;4903143;29;20048;-79
2023/03/14 14:01:06;;;;;;;1.45;0.98;;;;;;;;;;4897271;29;20057;-79
2023/03/14 14:03:35;;;;;;;1.00;0.85;;;;;;;;;;4899102;29;20052;-80
2023/03/14 14:06:02;;;;;;;2.55;1.65;;;;;;;;;;4877886;29;20052;-79
2023/03/14 14:08:30;;;;;;;1.52;1.20;;;;;;;;;;4905912;29;20492;-80
2023/03/14 14:11:04;;;;;;;3.00;1.08;;;;;;;;;;4893470;29;20045;-80
2023/03/14 14:13:35;;;;;;;1.23;0.73;;;;;;;;;;4916158;29;20060;-79
2023/03/14 14:16:05;;;;;;;0.85;0.70;;;;;;;;;;4900599;29;22691;-79
2023/03/14 14:18:36;;;;;;;0.88;0.73;;;;;;;;;;4902501;29;20056;-79
2023/03/14 14:21:06;;;;;;;1.55;0.98;;;;;;;;;;4894474;29;20052;-80
2023/03/14 14:23:38;;;;;;;4.65;1.20;;;;;;;;;;4876111;29;20055;-80
2023/03/14 14:26:15;;;;;;;2.65;0.90;;;;;;;;;;4872799;29;20060;-79
2023/03/14 14:28:45;;;;;;;1.10;0.70;;;;;;;;;;4890578;29;20060;-79
2023/03/14 14:31:21;;;;;;;1.90;0.70;;;;;;;;;;4901761;29;20072;-79
2023/03/14 14:33:55;;;;;;;5.57;0.90;;;;;;;;;;4898240;29;20410;-79
2023/03/14 14:36:27;;;;;;;2.70;1.10;;;;;;;;;;4894254;29;20055;-79
2023/03/14 14:38:58;;;;;;;2.92;1.00;;;;;;;;;;4903574;29;20285;-79
2023/03/14 14:41:30;;;;;;;2.58;0.90;;;;;;;;;;4912597;29;20057;-78
2023/03/14 14:43:58;;;;;;;1.10;0.65;;;;;;;;;;4913601;29;20040;-79
2023/03/14 14:46:28;;;;;;;4.75;1.23;;;;;;;;;;4906473;29;20055;-79
2023/03/14 14:48:56;;;;;;;1.42;0.88;;;;;;;;;;4897196;29;20047;-79
2023/03/14 14:51:25;;;;;;;1.00;0.90;;;;;;;;;;4908160;29;20561;-79
2023/03/14 14:54:10;;;;;;;1.77;1.63;;;;;;;;;;4890202;29;20515;-79
2023/03/14 14:56:48;;;;;;;1.33;0.90;;;;;;;;;;4879122;29;20045;-79
2023/03/14 14:59:23;;;;;;;1.08;0.75;;;;;;;;;;4895026;29;20404;-79
2023/03/14 15:01:51;;;;;;;1.42;0.80;;;;;;;;;;4902009;29;20052;-79
2023/03/14 15:04:18;;;;;;;1.65;0.88;;;;;;;;;;4910612;29;20494;-79
2023/03/14 15:06:50;;;;;;;0.93;0.70;;;;;;;;;;4926182;29;20059;-79
2023/03/14 15:09:17;;;;;;;1.73;0.70;;;;;;;;;;4901481;29;21403;-78
2023/03/14 15:11:46;;;;;;;4.30;1.45;;;;;;;;;;4896970;29;20430;-79
2023/03/14 15:14:16;;;;;;;0.93;0.68;;;;;;;;;;4901295;29;20529;-79
2023/03/14 15:16:43;;;;;;;0.77;0.50;;;;;;;;;;4901628;29;20067;-79
2023/03/14 15:19:13;;;;;;;1.77;0.93;;;;;;;;;;4910979;29;20064;-79